sensor_id;sensor_type;location;lat;lon;timestamp;pressure;altitude;pressure_sealevel;temperature;humidity
61682;BME280;47577;43.610;25.010;2022-07-22T00:01:04;100238.72;;;21.14;51.44
61682;BME280;47577;43.610;25.010;2022-07-22T00:03:29;100239.47;;;21.16;51.66
61682;BME280;47577;43.610;25.010;2022-07-22T00:05:55;100239.94;;;21.10;52.61
61682;BME280;47577;43.610;25.010;2022-07-22T00:08:21;100242.78;;;21.08;52.27
61682;BME280;47577;43.610;25.010;2022-07-22T00:10:46;100240.69;;;21.00;52.36
61682;BME280;47577;43.610;25.010;2022-07-22T00:13:12;100241.19;;;20.94;53.18
61682;BME280;47577;43.610;25.010;2022-07-22T00:15:40;100247.09;;;20.88;53.88
61682;BME280;47577;43.610;25.010;2022-07-22T00:18:06;100247.19;;;20.87;52.66
61682;BME280;47577;43.610;25.010;2022-07-22T00:20:31;100247.56;;;20.82;52.98
61682;BME280;47577;43.610;25.010;2022-07-22T00:22:58;100252.13;;;20.81;53.73
61682;BME280;47577;43.610;25.010;2022-07-22T00:25:24;100250.75;;;20.76;53.47
61682;BME280;47577;43.610;25.010;2022-07-22T00:27:49;100251.34;;;20.79;55.00
61682;BME280;47577;43.610;25.010;2022-07-22T00:30:15;100254.94;;;20.80;54.39
61682;BME280;47577;43.610;25.010;2022-07-22T00:32:40;100261.56;;;20.76;54.80
61682;BME280;47577;43.610;25.010;2022-07-22T00:35:06;100264.50;;;20.73;55.00
61682;BME280;47577;43.610;25.010;2022-07-22T00:37:32;100263.53;;;20.74;54.33
61682;BME280;47577;43.610;25.010;2022-07-22T00:39:58;100265.59;;;20.70;55.41
61682;BME280;47577;43.610;25.010;2022-07-22T00:42:23;100268.19;;;20.72;55.26
61682;BME280;47577;43.610;25.010;2022-07-22T00:44:49;100269.03;;;20.72;55.92
61682;BME280;47577;43.610;25.010;2022-07-22T00:47:14;100269.41;;;20.68;56.09
61682;BME280;47577;43.610;25.010;2022-07-22T00:49:40;100267.03;;;20.63;57.29
61682;BME280;47577;43.610;25.010;2022-07-22T00:52:05;100269.34;;;20.56;57.23
61682;BME280;47577;43.610;25.010;2022-07-22T00:54:31;100260.13;;;20.48;56.95
61682;BME280;47577;43.610;25.010;2022-07-22T00:56:57;100263.69;;;20.48;57.07
61682;BME280;47577;43.610;25.010;2022-07-22T00:59:23;100264.25;;;20.40;58.07
61682;BME280;47577;43.610;25.010;2022-07-22T01:01:49;100262.06;;;20.45;57.99
61682;BME280;47577;43.610;25.010;2022-07-22T01:04:14;100263.06;;;20.44;57.42
61682;BME280;47577;43.610;25.010;2022-07-22T01:06:40;100264.66;;;20.47;58.38
61682;BME280;47577;43.610;25.010;2022-07-22T01:09:10;100260.38;;;20.44;58.13
61682;BME280;47577;43.610;25.010;2022-07-22T01:11:36;100268.47;;;20.44;58.12
61682;BME280;47577;43.610;25.010;2022-07-22T01:14:02;100270.91;;;20.36;58.77
61682;BME280;47577;43.610;25.010;2022-07-22T01:16:27;100270.09;;;20.23;58.72
61682;BME280;47577;43.610;25.010;2022-07-22T01:18:53;100267.03;;;20.27;59.13
61682;BME280;47577;43.610;25.010;2022-07-22T01:21:21;100262.53;;;20.28;57.49
61682;BME280;47577;43.610;25.010;2022-07-22T01:23:47;100265.34;;;20.26;58.75
61682;BME280;47577;43.610;25.010;2022-07-22T01:26:13;100267.28;;;20.24;58.79
61682;BME280;47577;43.610;25.010;2022-07-22T01:28:39;100265.53;;;20.12;58.74
61682;BME280;47577;43.610;25.010;2022-07-22T01:31:04;100266.97;;;20.05;59.96
61682;BME280;47577;43.610;25.010;2022-07-22T01:33:30;100270.41;;;20.07;59.96
61682;BME280;47577;43.610;25.010;2022-07-22T01:35:55;100271.16;;;20.09;60.11
61682;BME280;47577;43.610;25.010;2022-07-22T01:38:21;100268.97;;;20.14;60.08
61682;BME280;47577;43.610;25.010;2022-07-22T01:40:47;100269.66;;;20.05;60.29
61682;BME280;47577;43.610;25.010;2022-07-22T01:43:13;100268.34;;;19.86;60.28
61682;BME280;47577;43.610;25.010;2022-07-22T01:45:42;100269.72;;;19.92;60.35
61682;BME280;47577;43.610;25.010;2022-07-22T01:48:08;100277.97;;;19.78;60.98
61682;BME280;47577;43.610;25.010;2022-07-22T01:50:34;100276.22;;;19.89;61.70
61682;BME280;47577;43.610;25.010;2022-07-22T01:52:59;100264.16;;;19.82;61.16
61682;BME280;47577;43.610;25.010;2022-07-22T01:55:25;100278.03;;;19.89;60.72
61682;BME280;47577;43.610;25.010;2022-07-22T01:57:50;100276.44;;;19.86;60.71
61682;BME280;47577;43.610;25.010;2022-07-22T02:00:16;100284.53;;;19.86;60.65
61682;BME280;47577;43.610;25.010;2022-07-22T02:02:41;100288.97;;;19.87;61.69
61682;BME280;47577;43.610;25.010;2022-07-22T02:05:07;100287.34;;;19.85;60.66
61682;BME280;47577;43.610;25.010;2022-07-22T02:07:33;100293.94;;;19.81;61.28
61682;BME280;47577;43.610;25.010;2022-07-22T02:09:59;100295.66;;;19.82;60.75
61682;BME280;47577;43.610;25.010;2022-07-22T02:12:25;100289.53;;;19.80;62.63
61682;BME280;47577;43.610;25.010;2022-07-22T02:14:51;100293.63;;;19.72;61.67
61682;BME280;47577;43.610;25.010;2022-07-22T02:17:16;100293.31;;;19.64;61.99
61682;BME280;47577;43.610;25.010;2022-07-22T02:19:42;100292.81;;;19.59;63.89
61682;BME280;47577;43.610;25.010;2022-07-22T02:22:08;100290.72;;;19.63;63.92
61682;BME280;47577;43.610;25.010;2022-07-22T02:24:34;100285.97;;;19.66;62.10
61682;BME280;47577;43.610;25.010;2022-07-22T02:26:59;100288.91;;;19.63;62.75
61682;BME280;47577;43.610;25.010;2022-07-22T02:29:25;100282.66;;;19.63;63.52
61682;BME280;47577;43.610;25.010;2022-07-22T02:31:51;100290.00;;;19.61;63.80
61682;BME280;47577;43.610;25.010;2022-07-22T02:34:16;100279.22;;;19.61;62.88
61682;BME280;47577;43.610;25.010;2022-07-22T02:36:42;100280.28;;;19.58;64.40
61682;BME280;47577;43.610;25.010;2022-07-22T02:39:07;100279.31;;;19.59;63.27
61682;BME280;47577;43.610;25.010;2022-07-22T02:41:33;100283.97;;;19.57;64.01
61682;BME280;47577;43.610;25.010;2022-07-22T02:43:59;100285.03;;;19.54;63.38
61682;BME280;47577;43.610;25.010;2022-07-22T02:46:25;100281.38;;;19.55;64.65
61682;BME280;47577;43.610;25.010;2022-07-22T02:48:51;100286.78;;;19.55;63.79
61682;BME280;47577;43.610;25.010;2022-07-22T02:51:17;100285.94;;;19.55;64.22
61682;BME280;47577;43.610;25.010;2022-07-22T02:53:42;100284.53;;;19.49;65.19
61682;BME280;47577;43.610;25.010;2022-07-22T02:56:08;100289.69;;;19.52;65.12
61682;BME280;47577;43.610;25.010;2022-07-22T02:58:33;100284.84;;;19.45;65.67
61682;BME280;47577;43.610;25.010;2022-07-22T03:00:59;100290.47;;;19.42;66.43
61682;BME280;47577;43.610;25.010;2022-07-22T03:03:24;100291.97;;;19.46;64.97
61682;BME280;47577;43.610;25.010;2022-07-22T03:05:50;100295.41;;;19.48;65.26
61682;BME280;47577;43.610;25.010;2022-07-22T03:08:15;100298.22;;;19.46;66.14
61682;BME280;47577;43.610;25.010;2022-07-22T03:10:41;100294.47;;;19.49;65.84
61682;BME280;47577;43.610;25.010;2022-07-22T03:13:06;100295.41;;;19.48;64.96
61682;BME280;47577;43.610;25.010;2022-07-22T03:15:33;100298.22;;;19.46;65.95
61682;BME280;47577;43.610;25.010;2022-07-22T03:17:58;100292.38;;;19.52;65.22
61682;BME280;47577;43.610;25.010;2022-07-22T03:20:24;100306.72;;;19.53;64.83
61682;BME280;47577;43.610;25.010;2022-07-22T03:22:49;100302.53;;;19.49;65.45
61682;BME280;47577;43.610;25.010;2022-07-22T03:25:15;100302.44;;;19.50;65.91
61682;BME280;47577;43.610;25.010;2022-07-22T03:27:40;100304.13;;;19.51;65.09
61682;BME280;47577;43.610;25.010;2022-07-22T03:30:06;100304.25;;;19.50;65.32
61682;BME280;47577;43.610;25.010;2022-07-22T03:32:31;100306.84;;;19.51;65.33
61682;BME280;47577;43.610;25.010;2022-07-22T03:34:57;100309.09;;;19.58;66.40
61682;BME280;47577;43.610;25.010;2022-07-22T03:37:22;100320.19;;;19.66;64.66
61682;BME280;47577;43.610;25.010;2022-07-22T03:39:48;100329.25;;;19.65;64.27
61682;BME280;47577;43.610;25.010;2022-07-22T03:42:13;100337.00;;;19.69;64.85
61682;BME280;47577;43.610;25.010;2022-07-22T03:44:39;100344.66;;;19.63;64.62
61682;BME280;47577;43.610;25.010;2022-07-22T03:47:04;100339.34;;;19.74;64.48
61682;BME280;47577;43.610;25.010;2022-07-22T03:49:30;100346.69;;;19.85;64.24
61682;BME280;47577;43.610;25.010;2022-07-22T03:51:56;100339.75;;;19.94;65.11
61682;BME280;47577;43.610;25.010;2022-07-22T03:54:21;100343.84;;;19.99;63.93
61682;BME280;47577;43.610;25.010;2022-07-22T03:56:47;100345.00;;;20.08;65.53
61682;BME280;47577;43.610;25.010;2022-07-22T03:59:12;100356.47;;;20.23;64.95
61682;BME280;47577;43.610;25.010;2022-07-22T04:01:37;100353.38;;;20.40;64.34
61682;BME280;47577;43.610;25.010;2022-07-22T04:04:03;100359.72;;;20.63;63.11
61682;BME280;47577;43.610;25.010;2022-07-22T04:06:28;100369.75;;;20.86;62.87
61682;BME280;47577;43.610;25.010;2022-07-22T04:08:54;100370.03;;;20.94;62.74
61682;BME280;47577;43.610;25.010;2022-07-22T04:11:20;100375.94;;;20.99;63.26
61682;BME280;47577;43.610;25.010;2022-07-22T04:13:45;100381.84;;;21.04;63.35
61682;BME280;47577;43.610;25.010;2022-07-22T04:16:11;100369.94;;;21.18;63.85
61682;BME280;47577;43.610;25.010;2022-07-22T04:18:36;100381.25;;;21.34;63.35
61682;BME280;47577;43.610;25.010;2022-07-22T04:21:01;100380.94;;;21.50;63.37
61682;BME280;47577;43.610;25.010;2022-07-22T04:23:27;100381.19;;;21.70;62.70
61682;BME280;47577;43.610;25.010;2022-07-22T04:25:52;100377.97;;;21.87;62.31
61682;BME280;47577;43.610;25.010;2022-07-22T04:28:18;100384.69;;;22.04;62.17
61682;BME280;47577;43.610;25.010;2022-07-22T04:30:43;100401.41;;;22.21;62.01
61682;BME280;47577;43.610;25.010;2022-07-22T04:33:09;100391.19;;;22.36;62.74
61682;BME280;47577;43.610;25.010;2022-07-22T04:35:35;100400.72;;;22.51;62.15
61682;BME280;47577;43.610;25.010;2022-07-22T04:38:00;100407.81;;;22.63;62.13
61682;BME280;47577;43.610;25.010;2022-07-22T04:40:26;100396.59;;;22.68;62.45
61682;BME280;47577;43.610;25.010;2022-07-22T04:42:51;100396.41;;;22.81;61.11
61682;BME280;47577;43.610;25.010;2022-07-22T04:45:17;100399.31;;;22.89;61.38
61682;BME280;47577;43.610;25.010;2022-07-22T04:47:42;100400.69;;;23.05;61.20
61682;BME280;47577;43.610;25.010;2022-07-22T04:50:08;100404.13;;;23.18;61.31
61682;BME280;47577;43.610;25.010;2022-07-22T04:52:33;100399.59;;;23.28;60.27
61682;BME280;47577;43.610;25.010;2022-07-22T04:54:59;100396.94;;;23.38;60.09
61682;BME280;47577;43.610;25.010;2022-07-22T04:57:25;100403.25;;;23.48;60.07
61682;BME280;47577;43.610;25.010;2022-07-22T04:59:51;100397.28;;;23.54;60.22
61682;BME280;47577;43.610;25.010;2022-07-22T05:02:16;100400.91;;;23.65;58.99
61682;BME280;47577;43.610;25.010;2022-07-22T05:04:42;100408.38;;;23.72;59.39
61682;BME280;47577;43.610;25.010;2022-07-22T05:07:07;100410.22;;;23.72;59.88
61682;BME280;47577;43.610;25.010;2022-07-22T05:09:33;100410.28;;;23.82;59.41
61682;BME280;47577;43.610;25.010;2022-07-22T05:11:58;100412.19;;;23.91;58.83
61682;BME280;47577;43.610;25.010;2022-07-22T05:14:24;100418.38;;;24.03;57.88
61682;BME280;47577;43.610;25.010;2022-07-22T05:16:49;100414.97;;;24.11;58.45
61682;BME280;47577;43.610;25.010;2022-07-22T05:19:15;100417.28;;;24.15;58.83
61682;BME280;47577;43.610;25.010;2022-07-22T05:21:40;100422.38;;;24.08;58.24
61682;BME280;47577;43.610;25.010;2022-07-22T05:24:05;100419.09;;;24.15;57.57
61682;BME280;47577;43.610;25.010;2022-07-22T05:26:31;100424.25;;;24.18;58.58
61682;BME280;47577;43.610;25.010;2022-07-22T05:28:58;100427.41;;;24.23;58.41
61682;BME280;47577;43.610;25.010;2022-07-22T05:31:24;100427.16;;;24.36;58.13
61682;BME280;47577;43.610;25.010;2022-07-22T05:33:53;100429.16;;;24.43;58.08
61682;BME280;47577;43.610;25.010;2022-07-22T05:36:19;100437.09;;;24.56;57.78
61682;BME280;47577;43.610;25.010;2022-07-22T05:38:44;100440.53;;;24.68;57.45
61682;BME280;47577;43.610;25.010;2022-07-22T05:41:10;100441.81;;;24.74;56.88
61682;BME280;47577;43.610;25.010;2022-07-22T05:43:35;100441.97;;;24.72;55.88
61682;BME280;47577;43.610;25.010;2022-07-22T05:46:00;100433.66;;;24.74;56.03
61682;BME280;47577;43.610;25.010;2022-07-22T05:48:26;100439.38;;;24.80;56.04
61682;BME280;47577;43.610;25.010;2022-07-22T05:50:51;100438.22;;;24.83;55.28
61682;BME280;47577;43.610;25.010;2022-07-22T05:53:17;100434.22;;;24.97;55.62
61682;BME280;47577;43.610;25.010;2022-07-22T05:55:42;100442.78;;;25.12;55.06
61682;BME280;47577;43.610;25.010;2022-07-22T05:58:08;100445.22;;;25.25;55.11
61682;BME280;47577;43.610;25.010;2022-07-22T06:00:34;100440.34;;;25.28;54.83
61682;BME280;47577;43.610;25.010;2022-07-22T06:02:59;100441.06;;;25.40;54.76
61682;BME280;47577;43.610;25.010;2022-07-22T06:05:25;100446.78;;;25.47;55.81
61682;BME280;47577;43.610;25.010;2022-07-22T06:07:52;100444.75;;;25.49;53.96
61682;BME280;47577;43.610;25.010;2022-07-22T06:10:17;100443.59;;;25.61;53.74
61682;BME280;47577;43.610;25.010;2022-07-22T06:12:42;100438.94;;;25.71;53.19
61682;BME280;47577;43.610;25.010;2022-07-22T06:15:08;100439.34;;;25.77;53.23
61682;BME280;47577;43.610;25.010;2022-07-22T06:17:33;100457.91;;;26.01;52.87
61682;BME280;47577;43.610;25.010;2022-07-22T06:19:59;100444.50;;;26.17;52.55
61682;BME280;47577;43.610;25.010;2022-07-22T06:22:25;100449.03;;;26.26;51.37
61682;BME280;47577;43.610;25.010;2022-07-22T06:24:50;100445.63;;;26.42;51.72
61682;BME280;47577;43.610;25.010;2022-07-22T06:27:16;100446.56;;;26.51;50.69
61682;BME280;47577;43.610;25.010;2022-07-22T06:29:41;100445.91;;;26.67;49.85
61682;BME280;47577;43.610;25.010;2022-07-22T06:32:07;100452.13;;;26.77;50.21
61682;BME280;47577;43.610;25.010;2022-07-22T06:34:33;100448.47;;;26.87;49.68
61682;BME280;47577;43.610;25.010;2022-07-22T06:36:58;100445.59;;;26.88;50.21
61682;BME280;47577;43.610;25.010;2022-07-22T06:39:24;100450.81;;;26.99;49.46
61682;BME280;47577;43.610;25.010;2022-07-22T06:41:49;100449.97;;;26.99;49.13
61682;BME280;47577;43.610;25.010;2022-07-22T06:44:15;100451.75;;;26.90;47.88
61682;BME280;47577;43.610;25.010;2022-07-22T06:46:40;100458.06;;;27.09;47.56
61682;BME280;47577;43.610;25.010;2022-07-22T06:49:06;100456.88;;;27.11;48.45
61682;BME280;47577;43.610;25.010;2022-07-22T06:51:32;100457.50;;;27.23;46.16
61682;BME280;47577;43.610;25.010;2022-07-22T06:53:58;100458.66;;;27.39;46.49
61682;BME280;47577;43.610;25.010;2022-07-22T06:56:24;100460.22;;;27.41;46.76
61682;BME280;47577;43.610;25.010;2022-07-22T06:58:49;100455.06;;;27.64;46.84
61682;BME280;47577;43.610;25.010;2022-07-22T07:01:15;100457.84;;;27.72;45.70
61682;BME280;47577;43.610;25.010;2022-07-22T07:03:40;100455.16;;;27.81;43.59
61682;BME280;47577;43.610;25.010;2022-07-22T07:06:06;100457.97;;;27.97;43.51
61682;BME280;47577;43.610;25.010;2022-07-22T07:08:32;100457.22;;;28.21;43.69
61682;BME280;47577;43.610;25.010;2022-07-22T07:10:58;100453.88;;;28.44;42.60
61682;BME280;47577;43.610;25.010;2022-07-22T07:13:23;100452.53;;;28.48;41.51
61682;BME280;47577;43.610;25.010;2022-07-22T07:15:48;100459.94;;;28.64;40.22
61682;BME280;47577;43.610;25.010;2022-07-22T07:18:14;100465.59;;;28.79;38.46
61682;BME280;47577;43.610;25.010;2022-07-22T07:20:39;100463.22;;;28.84;39.26
61682;BME280;47577;43.610;25.010;2022-07-22T07:23:05;100457.25;;;28.97;38.15
61682;BME280;47577;43.610;25.010;2022-07-22T07:25:30;100461.69;;;29.14;37.27
61682;BME280;47577;43.610;25.010;2022-07-22T07:27:56;100457.75;;;29.33;36.96
61682;BME280;47577;43.610;25.010;2022-07-22T07:30:21;100458.78;;;29.49;36.21
61682;BME280;47577;43.610;25.010;2022-07-22T07:32:47;100466.13;;;29.57;35.74
61682;BME280;47577;43.610;25.010;2022-07-22T07:35:13;100474.66;;;29.70;35.92
61682;BME280;47577;43.610;25.010;2022-07-22T07:37:38;100466.44;;;29.78;34.88
61682;BME280;47577;43.610;25.010;2022-07-22T07:40:04;100473.09;;;29.92;34.39
61682;BME280;47577;43.610;25.010;2022-07-22T07:42:30;100475.41;;;30.12;34.66
61682;BME280;47577;43.610;25.010;2022-07-22T07:44:56;100473.91;;;30.01;34.43
61682;BME280;47577;43.610;25.010;2022-07-22T07:47:21;100477.63;;;30.16;33.91
61682;BME280;47577;43.610;25.010;2022-07-22T07:49:47;100479.25;;;30.25;34.44
61682;BME280;47577;43.610;25.010;2022-07-22T07:52:13;100477.22;;;30.27;33.93
61682;BME280;47577;43.610;25.010;2022-07-22T07:54:39;100477.69;;;30.39;35.18
61682;BME280;47577;43.610;25.010;2022-07-22T07:57:08;100477.66;;;30.48;33.99
61682;BME280;47577;43.610;25.010;2022-07-22T07:59:35;100488.47;;;30.72;34.33
61682;BME280;47577;43.610;25.010;2022-07-22T08:02:01;100495.31;;;30.76;33.06
61682;BME280;47577;43.610;25.010;2022-07-22T08:04:26;100489.22;;;30.89;31.89
61682;BME280;47577;43.610;25.010;2022-07-22T08:06:52;100492.31;;;30.86;32.24
61682;BME280;47577;43.610;25.010;2022-07-22T08:09:17;100492.13;;;30.96;32.82
61682;BME280;47577;43.610;25.010;2022-07-22T08:11:42;100489.03;;;30.91;29.26
61682;BME280;47577;43.610;25.010;2022-07-22T08:14:08;100492.06;;;31.04;30.20
61682;BME280;47577;43.610;25.010;2022-07-22T08:16:33;100495.25;;;31.31;29.98
61682;BME280;47577;43.610;25.010;2022-07-22T08:18:59;100495.56;;;31.36;28.87
61682;BME280;47577;43.610;25.010;2022-07-22T08:21:24;100494.03;;;31.33;29.03
61682;BME280;47577;43.610;25.010;2022-07-22T08:23:50;100489.41;;;31.11;29.48
61682;BME280;47577;43.610;25.010;2022-07-22T08:26:16;100489.19;;;31.35;29.02
61682;BME280;47577;43.610;25.010;2022-07-22T08:28:41;100485.84;;;31.63;30.02
61682;BME280;47577;43.610;25.010;2022-07-22T08:31:07;100481.06;;;31.80;28.78
61682;BME280;47577;43.610;25.010;2022-07-22T08:33:32;100486.00;;;31.85;28.17
61682;BME280;47577;43.610;25.010;2022-07-22T08:35:58;100479.06;;;31.89;28.40
61682;BME280;47577;43.610;25.010;2022-07-22T08:38:23;100484.47;;;31.82;27.32
61682;BME280;47577;43.610;25.010;2022-07-22T08:40:49;100487.03;;;31.84;27.72
61682;BME280;47577;43.610;25.010;2022-07-22T08:43:14;100480.13;;;31.88;27.67
61682;BME280;47577;43.610;25.010;2022-07-22T08:45:40;100480.28;;;32.01;26.56
61682;BME280;47577;43.610;25.010;2022-07-22T08:48:06;100479.13;;;31.96;27.28
61682;BME280;47577;43.610;25.010;2022-07-22T08:50:32;100486.72;;;32.23;26.53
61682;BME280;47577;43.610;25.010;2022-07-22T08:52:57;100482.25;;;32.37;27.16
61682;BME280;47577;43.610;25.010;2022-07-22T08:55:23;100489.41;;;32.17;26.53
61682;BME280;47577;43.610;25.010;2022-07-22T08:57:49;100479.91;;;32.19;25.86
61682;BME280;47577;43.610;25.010;2022-07-22T09:00:16;100484.06;;;32.45;26.99
61682;BME280;47577;43.610;25.010;2022-07-22T09:02:42;100494.47;;;32.65;26.69
61682;BME280;47577;43.610;25.010;2022-07-22T09:05:09;100490.03;;;32.85;26.99
61682;BME280;47577;43.610;25.010;2022-07-22T09:07:35;100487.41;;;32.98;25.88
61682;BME280;47577;43.610;25.010;2022-07-22T09:10:02;100490.94;;;32.92;25.81
61682;BME280;47577;43.610;25.010;2022-07-22T09:12:28;100492.78;;;33.07;25.19
61682;BME280;47577;43.610;25.010;2022-07-22T09:14:55;100489.63;;;33.10;26.52
61682;BME280;47577;43.610;25.010;2022-07-22T09:17:32;100492.59;;;33.08;25.17
61682;BME280;47577;43.610;25.010;2022-07-22T09:20:01;100490.88;;;32.64;25.29
61682;BME280;47577;43.610;25.010;2022-07-22T09:22:45;100492.72;;;33.00;25.61
61682;BME280;47577;43.610;25.010;2022-07-22T09:25:31;100489.78;;;33.23;25.07
61682;BME280;47577;43.610;25.010;2022-07-22T09:30:32;100485.44;;;33.64;24.35
61682;BME280;47577;43.610;25.010;2022-07-22T09:32:58;100478.88;;;33.65;24.93
61682;BME280;47577;43.610;25.010;2022-07-22T09:35:23;100481.81;;;33.92;24.52
61682;BME280;47577;43.610;25.010;2022-07-22T09:37:57;100479.16;;;34.05;24.43
61682;BME280;47577;43.610;25.010;2022-07-22T09:40:24;100488.38;;;34.25;25.15
61682;BME280;47577;43.610;25.010;2022-07-22T09:42:51;100486.97;;;34.50;23.76
61682;BME280;47577;43.610;25.010;2022-07-22T09:45:17;100480.81;;;34.48;22.90
61682;BME280;47577;43.610;25.010;2022-07-22T09:47:48;100481.28;;;34.65;23.23
61682;BME280;47577;43.610;25.010;2022-07-22T09:50:24;100490.94;;;33.64;23.24
61682;BME280;47577;43.610;25.010;2022-07-22T09:52:50;100480.72;;;34.28;23.49
61682;BME280;47577;43.610;25.010;2022-07-22T09:55:18;100488.72;;;34.64;22.05
61682;BME280;47577;43.610;25.010;2022-07-22T09:57:44;100481.56;;;34.76;21.49
61682;BME280;47577;43.610;25.010;2022-07-22T10:00:10;100479.25;;;34.87;22.66
61682;BME280;47577;43.610;25.010;2022-07-22T10:02:56;100495.34;;;34.70;21.63
61682;BME280;47577;43.610;25.010;2022-07-22T10:05:23;100481.69;;;33.72;21.20
61682;BME280;47577;43.610;25.010;2022-07-22T10:07:49;100489.69;;;34.36;21.98
61682;BME280;47577;43.610;25.010;2022-07-22T10:10:17;100481.09;;;34.73;21.43
61682;BME280;47577;43.610;25.010;2022-07-22T10:12:42;100478.81;;;34.83;21.94
61682;BME280;47577;43.610;25.010;2022-07-22T10:15:08;100482.06;;;35.20;20.60
61682;BME280;47577;43.610;25.010;2022-07-22T10:17:36;100476.97;;;35.30;20.18
61682;BME280;47577;43.610;25.010;2022-07-22T10:20:03;100482.69;;;35.62;21.16
61682;BME280;47577;43.610;25.010;2022-07-22T10:25:13;100466.94;;;35.76;20.66
61682;BME280;47577;43.610;25.010;2022-07-22T10:27:55;100462.44;;;35.88;21.36
61682;BME280;47577;43.610;25.010;2022-07-22T10:30:26;100466.84;;;36.10;20.14
61682;BME280;47577;43.610;25.010;2022-07-22T10:35:37;100459.50;;;35.83;20.29
61682;BME280;47577;43.610;25.010;2022-07-22T10:38:04;100462.47;;;35.82;20.74
61682;BME280;47577;43.610;25.010;2022-07-22T10:40:31;100463.94;;;35.84;20.56
61682;BME280;47577;43.610;25.010;2022-07-22T10:45:26;100463.97;;;35.18;18.73
61682;BME280;47577;43.610;25.010;2022-07-22T10:47:53;100460.34;;;35.70;19.59
61682;BME280;47577;43.610;25.010;2022-07-22T10:53:03;100463.69;;;35.93;19.13
61682;BME280;47577;43.610;25.010;2022-07-22T10:55:29;100458.56;;;36.03;18.95
61682;BME280;47577;43.610;25.010;2022-07-22T10:57:54;100456.84;;;36.09;18.97
61682;BME280;47577;43.610;25.010;2022-07-22T11:00:20;100458.31;;;36.18;18.26
61682;BME280;47577;43.610;25.010;2022-07-22T11:02:45;100457.78;;;36.41;18.68
61682;BME280;47577;43.610;25.010;2022-07-22T11:05:11;100450.16;;;36.36;17.87
61682;BME280;47577;43.610;25.010;2022-07-22T11:07:46;100453.47;;;36.52;17.79
61682;BME280;47577;43.610;25.010;2022-07-22T11:10:13;100451.88;;;36.69;18.40
61682;BME280;47577;43.610;25.010;2022-07-22T11:12:39;100460.81;;;36.71;18.54
61682;BME280;47577;43.610;25.010;2022-07-22T11:15:04;100461.34;;;36.55;18.17
61682;BME280;47577;43.610;25.010;2022-07-22T11:17:31;100454.88;;;36.68;16.92
61682;BME280;47577;43.610;25.010;2022-07-22T11:20:03;100448.06;;;36.64;18.21
61682;BME280;47577;43.610;25.010;2022-07-22T11:22:29;100452.16;;;36.93;18.15
61682;BME280;47577;43.610;25.010;2022-07-22T11:24:55;100460.34;;;36.81;17.57
61682;BME280;47577;43.610;25.010;2022-07-22T11:27:21;100452.09;;;36.74;17.89
61682;BME280;47577;43.610;25.010;2022-07-22T11:29:51;100451.09;;;36.55;16.86
61682;BME280;47577;43.610;25.010;2022-07-22T11:32:17;100440.03;;;36.55;17.05
61682;BME280;47577;43.610;25.010;2022-07-22T11:34:44;100446.09;;;36.77;17.10
61682;BME280;47577;43.610;25.010;2022-07-22T11:37:12;100446.75;;;37.05;16.74
61682;BME280;47577;43.610;25.010;2022-07-22T11:39:37;100437.47;;;37.24;18.25
61682;BME280;47577;43.610;25.010;2022-07-22T11:42:03;100439.81;;;37.46;17.56
61682;BME280;47577;43.610;25.010;2022-07-22T11:44:30;100445.50;;;37.51;17.41
61682;BME280;47577;43.610;25.010;2022-07-22T11:46:55;100444.72;;;37.44;17.64
61682;BME280;47577;43.610;25.010;2022-07-22T11:49:24;100445.72;;;37.49;17.18
61682;BME280;47577;43.610;25.010;2022-07-22T11:51:50;100446.44;;;37.63;17.06
61682;BME280;47577;43.610;25.010;2022-07-22T11:54:16;100426.91;;;37.77;16.18
61682;BME280;47577;43.610;25.010;2022-07-22T11:56:41;100435.38;;;37.82;16.07
61682;BME280;47577;43.610;25.010;2022-07-22T11:59:07;100434.91;;;37.85;16.07
61682;BME280;47577;43.610;25.010;2022-07-22T12:01:35;100432.16;;;37.85;16.52
61682;BME280;47577;43.610;25.010;2022-07-22T12:04:05;100428.28;;;38.04;16.17
61682;BME280;47577;43.610;25.010;2022-07-22T12:06:32;100424.97;;;38.14;16.81
61682;BME280;47577;43.610;25.010;2022-07-22T12:09:05;100425.41;;;38.11;15.93
61682;BME280;47577;43.610;25.010;2022-07-22T12:11:32;100425.69;;;37.91;16.58
61682;BME280;47577;43.610;25.010;2022-07-22T12:14:04;100425.81;;;38.15;16.69
61682;BME280;47577;43.610;25.010;2022-07-22T12:16:30;100419.91;;;37.93;15.75
61682;BME280;47577;43.610;25.010;2022-07-22T12:18:59;100415.81;;;36.83;15.68
61682;BME280;47577;43.610;25.010;2022-07-22T12:21:26;100411.69;;;35.56;16.72
61682;BME280;47577;43.610;25.010;2022-07-22T12:23:56;100400.81;;;36.20;16.67
61682;BME280;47577;43.610;25.010;2022-07-22T12:29:16;100401.38;;;37.31;17.61
61682;BME280;47577;43.610;25.010;2022-07-22T12:31:45;100395.28;;;37.59;16.66
61682;BME280;47577;43.610;25.010;2022-07-22T12:34:11;100398.03;;;37.84;15.92
61682;BME280;47577;43.610;25.010;2022-07-22T12:36:37;100394.22;;;38.16;15.88
61682;BME280;47577;43.610;25.010;2022-07-22T12:39:15;100382.13;;;38.10;15.48
61682;BME280;47577;43.610;25.010;2022-07-22T12:41:49;100380.91;;;37.69;15.94
61682;BME280;47577;43.610;25.010;2022-07-22T12:44:19;100381.16;;;37.86;16.64
61682;BME280;47577;43.610;25.010;2022-07-22T12:46:46;100381.09;;;38.04;15.69
61682;BME280;47577;43.610;25.010;2022-07-22T12:49:11;100381.75;;;37.88;15.68
61682;BME280;47577;43.610;25.010;2022-07-22T12:51:37;100372.19;;;37.84;15.34